Time;durP1;ratioP1;P1;durP2;ratioP2;P2;SDS_P1;SDS_P2;PMS_P1;PMS_P2;Temp;Humidity;BMP_temperature;BMP_pressure;BME280_temperature;BME280_humidity;BME280_pressure;Samples;Min_cycle;Max_cycle;Signal;HPM_P1;HPM_P2
2022/06/14 00:00:53;;;;;;;;;;;10.70;99.90;;;;;;5014574;28;19983;-78
2022/06/14 00:03:21;;;;;;;;;;;10.70;99.90;;;;;;4992687;28;19929;-77
2022/06/14 00:05:46;;;;;;;;;;;10.60;99.90;;;;;;5015054;28;19929;-77
2022/06/14 00:08:12;;;;;;;;;;;10.70;99.90;;;;;;4997126;28;19929;-77
2022/06/14 00:10:38;;;;;;;;;;;10.70;99.90;;;;;;5012843;28;20209;-77
2022/06/14 00:13:04;;;;;;;;;;;10.60;99.90;;;;;;5015832;28;19935;-77
2022/06/14 00:15:29;;;;;;;;;;;10.60;99.90;;;;;;4999322;28;20483;-78
2022/06/14 00:17:55;;;;;;;;;;;10.70;99.90;;;;;;5017193;28;20376;-77
2022/06/14 00:20:21;;;;;;;;;;;10.60;99.90;;;;;;5017765;28;19982;-77
2022/06/14 00:22:46;;;;;;;;;;;10.60;99.90;;;;;;5000816;28;19968;-77
2022/06/14 00:25:23;;;;;;;;;;;10.50;99.90;;;;;;5016587;28;20321;-78
2022/06/14 00:27:49;;;;;;;;;;;10.50;99.90;;;;;;4990864;28;20402;-77
2022/06/14 00:30:15;;;;;;;;;;;10.50;99.90;;;;;;4996387;28;20011;-77
2022/06/14 00:32:41;;;;;;;;;;;10.40;99.90;;;;;;5014286;28;19933;-78
2022/06/14 00:35:07;;;;;;;;;;;10.30;99.90;;;;;;5000111;28;19928;-78
2022/06/14 00:37:33;;;;;;;;;;;10.40;99.90;;;;;;5017292;28;19925;-78
2022/06/14 00:39:59;;;;;;;;;;;10.30;99.90;;;;;;5016555;28;19928;-77
2022/06/14 00:42:24;;;;;;;;;;;10.30;99.90;;;;;;5017237;28;19997;-77
2022/06/14 00:45:08;;;;;;;;;;;10.20;99.90;;;;;;5014358;28;19929;-78
2022/06/14 00:47:40;;;;;;;;;;;10.20;99.90;;;;;;5014782;28;19998;-77
2022/06/14 00:50:11;;;;;;;;;;;10.10;99.90;;;;;;4999713;28;20417;-78
2022/06/14 00:52:39;;;;;;;;;;;10.20;99.90;;;;;;5005972;28;20017;-77
2022/06/14 00:55:09;;;;;;;;;;;10.00;99.90;;;;;;5016351;28;19929;-78
2022/06/14 00:57:52;;;;;;;;;;;10.10;99.90;;;;;;5010526;28;19928;-78
2022/06/14 01:00:20;;;;;;;;;;;10.10;99.90;;;;;;5014524;28;20298;-78
2022/06/14 01:02:52;;;;;;;;;;;10.10;99.90;;;;;;5011669;28;19929;-78
2022/06/14 01:05:26;;;;;;;;;;;10.10;99.90;;;;;;5017312;28;20336;-77
2022/06/14 01:07:55;;;;;;;;;;;10.00;99.90;;;;;;5012546;28;19929;-77
2022/06/14 01:10:25;;;;;;;;;;;10.00;99.90;;;;;;5011754;28;20197;-78
2022/06/14 01:12:53;;;;;;;;;;;10.20;99.90;;;;;;5016880;28;20095;-78
2022/06/14 01:15:22;;;;;;;;;;;10.10;99.90;;;;;;5027949;28;20019;-77
2022/06/14 01:17:53;;;;;;;;;;;10.20;99.90;;;;;;5008660;28;19928;-77
2022/06/14 01:20:20;;;;;;;;;;;10.30;99.90;;;;;;5026297;28;19932;-78
2022/06/14 01:22:46;;;;;;;;;;;10.20;99.90;;;;;;4994803;28;19937;-78
2022/06/14 01:25:12;;;;;;;;;;;10.30;99.90;;;;;;5015931;28;19928;-77
2022/06/14 01:27:39;;;;;;;;;;;10.20;99.90;;;;;;5018932;28;19929;-78
2022/06/14 01:30:07;;;;;;;;;;;10.30;99.90;;;;;;5017194;28;19983;-78
2022/06/14 01:32:34;;;;;;;;;;;10.20;99.90;;;;;;5016202;28;19929;-78
2022/06/14 01:35:02;;;;;;;;;;;10.20;99.90;;;;;;4997608;28;20485;-78
2022/06/14 01:37:28;;;;;;;;;;;10.20;99.90;;;;;;4995595;28;20724;-78
2022/06/14 01:39:55;;;;;;;;;;;10.10;99.90;;;;;;4989868;28;19933;-78
2022/06/14 01:42:26;;;;;;;;;;;10.10;99.90;;;;;;4996883;28;20090;-77
2022/06/14 01:44:52;;;;;;;;;;;10.00;99.90;;;;;;4995667;28;19929;-77
2022/06/14 01:47:36;;;;;;;;;;;10.00;99.90;;;;;;4997120;28;20504;-77
2022/06/14 01:53:06;;;;;;;;;;;9.90;99.90;;;;;;4993732;28;19937;-77
2022/06/14 01:55:40;;;;;;;;;;;9.80;99.90;;;;;;4990757;28;19991;-77
2022/06/14 01:58:11;;;;;;;;;;;9.70;99.90;;;;;;4959257;28;20015;-78
2022/06/14 02:00:55;;;;;;;;;;;9.60;99.90;;;;;;4993285;28;20765;-77
2022/06/14 02:06:18;;;;;;;;;;;9.60;99.90;;;;;;4992722;28;22844;-79
2022/06/14 02:08:47;;;;;;;;;;;9.60;99.90;;;;;;4974520;28;20048;-78
2022/06/14 02:11:19;;;;;;;;;;;9.50;99.90;;;;;;4972654;28;19929;-78
2022/06/14 02:13:49;;;;;;;;;;;9.60;99.90;;;;;;4991347;28;19952;-78
2022/06/14 02:16:14;;;;;;;;;;;9.60;99.90;;;;;;4972987;28;19933;-78
2022/06/14 02:18:42;;;;;;;;;;;9.60;99.90;;;;;;4990009;28;19979;-78
2022/06/14 02:21:12;;;;;;;;;;;9.50;99.90;;;;;;4992776;28;19964;-78
2022/06/14 02:23:40;;;;;;;;;;;9.50;99.90;;;;;;4972669;28;20041;-78
2022/06/14 02:26:08;;;;;;;;;;;9.40;99.90;;;;;;4955870;28;19936;-77
2022/06/14 02:28:37;;;;;;;;;;;9.50;99.90;;;;;;4990089;28;19929;-77
2022/06/14 02:31:09;;;;;;;;;;;9.40;99.90;;;;;;4989856;28;19929;-77
2022/06/14 02:33:39;;;;;;;;;;;9.40;99.90;;;;;;4973179;28;19929;-77
2022/06/14 02:36:23;;;;;;;;;;;9.50;99.90;;;;;;4990778;28;20220;-77
2022/06/14 02:38:52;;;;;;;;;;;9.60;99.90;;;;;;5003721;28;19932;-77
2022/06/14 02:41:20;;;;;;;;;;;9.50;99.90;;;;;;4998610;28;19979;-77
2022/06/14 02:43:50;;;;;;;;;;;9.50;99.90;;;;;;5014286;28;20471;-77
2022/06/14 02:46:18;;;;;;;;;;;9.60;99.90;;;;;;4995824;28;19932;-77
2022/06/14 02:48:44;;;;;;;;;;;9.60;99.90;;;;;;5013502;28;19928;-77
2022/06/14 02:51:15;;;;;;;;;;;9.50;99.90;;;;;;5011343;28;20444;-77
2022/06/14 02:53:44;;;;;;;;;;;9.60;99.90;;;;;;5015873;28;19940;-77
2022/06/14 02:56:15;;;;;;;;;;;9.50;99.90;;;;;;5014315;28;20101;-77
2022/06/14 02:58:41;;;;;;;;;;;9.50;99.90;;;;;;4994150;28;19994;-77
2022/06/14 03:01:26;;;;;;;;;;;9.50;99.90;;;;;;4996910;28;20011;-77
2022/06/14 03:03:55;;;;;;;;;;;9.40;99.90;;;;;;5009314;28;19968;-77
2022/06/14 03:06:21;;;;;;;;;;;9.30;99.90;;;;;;5014369;28;19955;-78
2022/06/14 03:08:46;;;;;;;;;;;9.40;99.90;;;;;;5011908;28;20409;-77
2022/06/14 03:11:34;;;;;;;;;;;9.40;99.90;;;;;;5014208;28;19929;-77
2022/06/14 03:14:39;;;;;;;;;;;9.40;99.90;;;;;;5005861;28;20013;-77
2022/06/14 03:17:19;;;;;;;;;;;9.40;99.90;;;;;;4929649;28;19938;-78
2022/06/14 03:19:45;;;;;;;;;;;9.40;99.90;;;;;;4947295;28;21002;-77
2022/06/14 03:22:10;;;;;;;;;;;9.40;99.90;;;;;;4982819;28;20032;-77
2022/06/14 03:24:42;;;;;;;;;;;9.50;99.90;;;;;;5014037;28;19936;-77
2022/06/14 03:27:20;;;;;;;;;;;9.40;99.90;;;;;;5010339;28;20047;-77
2022/06/14 03:30:00;;;;;;;;;;;9.40;99.90;;;;;;5010719;28;20047;-78
2022/06/14 03:32:47;;;;;;;;;;;9.40;99.90;;;;;;5011172;28;20032;-78
2022/06/14 03:35:20;;;;;;;;;;;9.40;99.90;;;;;;5013874;28;19968;-77
2022/06/14 03:37:46;;;;;;;;;;;9.50;99.90;;;;;;5013068;28;20020;-78
2022/06/14 03:40:14;;;;;;;;;;;9.50;99.90;;;;;;5011567;28;19929;-77
2022/06/14 03:42:40;;;;;;;;;;;9.50;99.90;;;;;;4991692;28;19928;-77
2022/06/14 03:45:10;;;;;;;;;;;9.50;99.90;;;;;;4992306;28;19929;-77
2022/06/14 03:47:35;;;;;;;;;;;9.40;99.90;;;;;;5013959;28;19956;-78
2022/06/14 03:50:13;;;;;;;;;;;9.30;99.90;;;;;;5009540;28;19932;-78
2022/06/14 03:52:49;;;;;;;;;;;9.50;99.90;;;;;;5010534;28;19939;-78
2022/06/14 03:55:27;;;;;;;;;;;9.60;99.90;;;;;;5010884;28;19951;-78
2022/06/14 03:58:21;;;;;;;;;;;9.70;99.90;;;;;;5008771;28;19932;-78
2022/06/14 04:00:52;;;;;;;;;;;9.80;99.90;;;;;;4945731;28;20016;-78
2022/06/14 04:03:32;;;;;;;;;;;10.00;99.90;;;;;;5012365;28;20475;-78
2022/06/14 04:06:01;;;;;;;;;;;10.00;99.90;;;;;;5009332;28;19935;-77
2022/06/14 04:08:36;;;;;;;;;;;10.00;99.90;;;;;;4984160;28;19939;-77
2022/06/14 04:11:01;;;;;;;;;;;10.10;99.90;;;;;;5011890;28;19933;-76
2022/06/14 04:13:28;;;;;;;;;;;10.10;99.90;;;;;;5010785;28;19936;-78
2022/06/14 04:15:53;;;;;;;;;;;10.10;99.90;;;;;;5011156;28;19952;-78
2022/06/14 04:18:40;;;;;;;;;;;10.20;99.90;;;;;;4995379;28;19928;-77
2022/06/14 04:21:24;;;;;;;;;;;10.20;99.90;;;;;;5013803;28;19947;-77
2022/06/14 04:23:53;;;;;;;;;;;10.30;99.90;;;;;;5010063;28;19953;-77
2022/06/14 04:26:18;;;;;;;;;;;10.30;99.90;;;;;;5009488;28;19928;-78
2022/06/14 04:28:49;;;;;;;;;;;10.40;99.90;;;;;;5011009;28;19940;-77
2022/06/14 04:31:18;;;;;;;;;;;10.50;99.90;;;;;;4988854;28;21396;-77
2022/06/14 04:33:46;;;;;;;;;;;10.50;99.90;;;;;;5019380;28;21338;-78
2022/06/14 04:36:15;;;;;;;;;;;10.70;99.90;;;;;;5008289;28;20352;-78
2022/06/14 04:38:42;;;;;;;;;;;11.10;99.90;;;;;;4988610;28;19933;-78
2022/06/14 04:41:11;;;;;;;;;;;11.20;99.90;;;;;;4998420;28;20377;-78
2022/06/14 04:43:39;;;;;;;;;;;12.60;99.90;;;;;;5009030;28;19940;-77
2022/06/14 04:46:10;;;;;;;;;;;13.30;99.90;;;;;;4998878;28;20686;-78
2022/06/14 04:48:48;;;;;;;;;;;14.00;99.90;;;;;;5008738;28;20314;-78
2022/06/14 04:51:14;;;;;;;;;;;14.60;99.90;;;;;;5006601;28;19931;-79
2022/06/14 04:53:47;;;;;;;;;;;15.60;99.90;;;;;;5007696;28;19963;-78
2022/06/14 04:56:13;;;;;;;;;;;15.80;99.90;;;;;;5015863;28;20465;-77
2022/06/14 04:58:44;;;;;;;;;;;15.90;99.90;;;;;;5023331;28;19933;-78
2022/06/14 05:01:14;;;;;;;;;;;16.70;99.90;;;;;;4985732;28;19987;-78
2022/06/14 05:03:44;;;;;;;;;;;17.30;99.90;;;;;;5028266;28;19933;-78
2022/06/14 05:06:21;;;;;;;;;;;17.60;99.90;;;;;;5009853;28;20408;-78
2022/06/14 05:08:52;;;;;;;;;;;18.00;99.90;;;;;;4989200;28;20804;-78
2022/06/14 05:11:26;;;;;;;;;;;18.30;99.90;;;;;;5016641;28;19958;-78
2022/06/14 05:13:58;;;;;;;;;;;18.40;99.90;;;;;;5020298;28;19936;-78
2022/06/14 05:16:28;;;;;;;;;;;18.90;99.90;;;;;;5003733;28;20268;-77
2022/06/14 05:19:16;;;;;;;;;;;19.40;99.90;;;;;;5020362;28;20633;-78
2022/06/14 05:22:01;;;;;;;;;;;20.10;99.90;;;;;;5001413;28;19932;-77
2022/06/14 05:24:26;;;;;;;;;;;20.40;99.90;;;;;;5000076;28;20428;-77
2022/06/14 05:26:52;;;;;;;;;;;21.00;99.90;;;;;;5004264;28;21458;-77
2022/06/14 05:29:33;;;;;;;;;;;21.30;99.90;;;;;;5021430;28;20339;-78
2022/06/14 05:32:17;;;;;;;;;;;21.80;99.90;;;;;;5005217;28;20434;-78
2022/06/14 05:34:59;;;;;;;;;;;21.80;99.90;;;;;;5004566;28;20435;-77
2022/06/14 05:37:44;;;;;;;;;;;21.80;99.90;;;;;;5022539;28;19929;-78
2022/06/14 05:40:14;;;;;;;;;;;21.70;99.90;;;;;;5024794;28;20051;-77
2022/06/14 05:42:45;;;;;;;;;;;22.00;99.90;;;;;;5020694;28;20050;-77
2022/06/14 05:45:12;;;;;;;;;;;22.00;99.90;;;;;;5023533;28;19929;-78
2022/06/14 05:47:47;;;;;;;;;;;20.70;99.90;;;;;;5022592;28;20642;-78
2022/06/14 05:50:17;;;;;;;;;;;19.70;99.90;;;;;;5023248;28;20330;-78
2022/06/14 05:52:45;;;;;;;;;;;19.20;99.90;;;;;;5004655;28;19928;-78
2022/06/14 05:55:18;;;;;;;;;;;18.70;99.90;;;;;;5019867;28;20023;-78
2022/06/14 05:57:43;;;;;;;;;;;18.50;99.90;;;;;;5020233;28;20649;-78
2022/06/14 06:00:16;;;;;;;;;;;18.10;99.90;;;;;;5028472;28;19937;-78
2022/06/14 06:02:57;;;;;;;;;;;18.20;99.90;;;;;;5011901;28;19959;-78
2022/06/14 06:05:29;;;;;;;;;;;18.20;99.90;;;;;;5013984;28;19935;-78
2022/06/14 06:08:06;;;;;;;;;;;18.40;99.90;;;;;;5030382;28;19956;-77
2022/06/14 06:10:34;;;;;;;;;;;18.50;99.90;;;;;;5029469;28;19928;-77
2022/06/14 06:13:08;;;;;;;;;;;18.60;99.90;;;;;;5027906;28;20430;-77
2022/06/14 06:15:46;;;;;;;;;;;18.60;99.90;;;;;;5027129;28;19929;-78
2022/06/14 06:18:32;;;;;;;;;;;18.30;99.90;;;;;;5013026;28;19976;-78
2022/06/14 06:21:01;;;;;;;;;;;18.70;99.90;;;;;;5012322;28;19929;-78
2022/06/14 06:23:33;;;;;;;;;;;18.50;99.90;;;;;;5030749;28;19994;-77
2022/06/14 06:25:59;;;;;;;;;;;19.00;99.90;;;;;;5012416;28;19942;-77
2022/06/14 06:28:26;;;;;;;;;;;19.20;99.90;;;;;;5031863;28;20378;-78
2022/06/14 06:30:56;;;;;;;;;;;18.90;99.90;;;;;;5013362;28;19933;-78
2022/06/14 06:33:22;;;;;;;;;;;18.60;99.90;;;;;;5030836;28;19932;-79
2022/06/14 06:36:03;;;;;;;;;;;18.90;99.90;;;;;;5013144;28;19936;-77
2022/06/14 06:38:40;;;;;;;;;;;19.10;99.90;;;;;;4998333;28;20002;-79
2022/06/14 06:43:56;;;;;;;;;;;19.10;99.90;;;;;;4988276;28;20022;-78
2022/06/14 06:46:24;;;;;;;;;;;19.20;99.90;;;;;;5008284;28;20040;-78
2022/06/14 06:48:55;;;;;;;;;;;19.20;99.90;;;;;;5008382;28;19979;-79
2022/06/14 06:51:22;;;;;;;;;;;19.40;99.90;;;;;;4993481;28;21073;-78
2022/06/14 06:53:53;;;;;;;;;;;19.50;99.90;;;;;;4992334;28;19929;-78
2022/06/14 06:56:21;;;;;;;;;;;19.50;99.90;;;;;;4994480;28;20214;-78
2022/06/14 06:58:55;;;;;;;;;;;19.30;99.90;;;;;;5008614;28;19929;-78
2022/06/14 07:01:24;;;;;;;;;;;19.40;99.90;;;;;;5010460;28;19936;-78
2022/06/14 07:04:05;;;;;;;;;;;19.30;99.90;;;;;;5010967;28;19958;-79
2022/06/14 07:06:45;;;;;;;;;;;19.10;99.90;;;;;;5012645;28;20016;-78
2022/06/14 07:09:20;;;;;;;;;;;19.60;99.90;;;;;;4994068;28;20842;-79
2022/06/14 07:11:51;;;;;;;;;;;19.30;99.90;;;;;;4965920;28;19994;-79
2022/06/14 07:14:17;;;;;;;;;;;18.90;99.90;;;;;;5010407;28;20524;-77
2022/06/14 07:16:45;;;;;;;;;;;18.90;99.90;;;;;;4993017;28;19929;-78
2022/06/14 07:19:46;;;;;;;;;;;18.80;99.90;;;;;;5010738;28;19929;-78
2022/06/14 07:22:12;;;;;;;;;;;19.10;99.90;;;;;;4954964;28;19934;-78
2022/06/14 07:25:07;;;;;;;;;;;18.50;99.90;;;;;;4986498;28;19929;-78
2022/06/14 07:27:43;;;;;;;;;;;18.50;99.90;;;;;;4986769;28;19932;-78
2022/06/14 07:30:11;;;;;;;;;;;18.40;99.90;;;;;;4993942;28;20012;-77
2022/06/14 07:32:46;;;;;;;;;;;18.30;99.90;;;;;;5011286;28;19929;-78
2022/06/14 07:35:13;;;;;;;;;;;18.40;99.90;;;;;;5011665;28;19933;-78
2022/06/14 07:37:45;;;;;;;;;;;18.20;99.90;;;;;;4994896;28;19929;-78
2022/06/14 07:40:14;;;;;;;;;;;18.70;99.90;;;;;;5029137;28;20402;-79
2022/06/14 07:43:00;;;;;;;;;;;19.00;99.90;;;;;;5028555;28;19928;-79
2022/06/14 07:45:31;;;;;;;;;;;19.20;99.90;;;;;;5027745;28;20324;-78
2022/06/14 07:48:07;;;;;;;;;;;19.50;99.90;;;;;;5030752;28;19964;-78
2022/06/14 07:50:36;;;;;;;;;;;19.10;99.90;;;;;;5013569;28;20601;-78
2022/06/14 07:53:12;;;;;;;;;;;18.60;99.90;;;;;;5028672;28;20112;-78
2022/06/14 07:55:40;;;;;;;;;;;18.50;99.90;;;;;;5028980;28;19936;-80
2022/06/14 07:58:09;;;;;;;;;;;19.00;99.90;;;;;;5010355;28;19988;-78
2022/06/14 08:01:09;;;;;;;;;;;18.30;99.90;;;;;;5013268;28;19929;-79
2022/06/14 08:03:37;;;;;;;;;;;18.20;99.90;;;;;;5007953;28;20031;-78
2022/06/14 08:06:04;;;;;;;;;;;17.70;99.90;;;;;;5023678;28;19937;-78
2022/06/14 08:08:38;;;;;;;;;;;18.20;99.90;;;;;;5002022;28;20357;-78
2022/06/14 08:11:14;;;;;;;;;;;18.70;99.90;;;;;;5019034;28;20060;-78
2022/06/14 08:13:53;;;;;;;;;;;19.40;99.90;;;;;;5029173;28;20123;-78
2022/06/14 08:16:20;;;;;;;;;;;18.90;99.90;;;;;;5012053;28;20385;-78
2022/06/14 08:18:49;;;;;;;;;;;18.90;99.90;;;;;;5026072;28;19929;-78
2022/06/14 08:21:30;;;;;;;;;;;20.20;99.90;;;;;;5010101;28;19945;-78
2022/06/14 08:24:03;;;;;;;;;;;20.20;99.90;;;;;;5010834;28;20041;-78
2022/06/14 08:26:31;;;;;;;;;;;19.00;99.90;;;;;;5028527;28;19933;-79
2022/06/14 08:29:05;;;;;;;;;;;19.20;99.90;;;;;;5028053;28;19929;-78
2022/06/14 08:31:34;;;;;;;;;;;19.00;99.90;;;;;;5027546;28;20044;-78
2022/06/14 08:34:04;;;;;;;;;;;18.60;99.90;;;;;;5010299;28;19932;-79
2022/06/14 08:36:36;;;;;;;;;;;18.60;99.90;;;;;;5033756;28;20013;-78
2022/06/14 08:39:07;;;;;;;;;;;19.00;99.90;;;;;;5013056;28;20401;-78
2022/06/14 08:41:44;;;;;;;;;;;19.80;99.90;;;;;;5016744;28;20225;-81
2022/06/14 08:44:16;;;;;;;;;;;20.50;99.90;;;;;;5034423;28;20463;-79
2022/06/14 08:46:51;;;;;;;;;;;21.10;99.90;;;;;;4989314;28;20400;-79
2022/06/14 08:49:35;;;;;;;;;;;20.40;99.90;;;;;;5032579;28;19928;-78
2022/06/14 08:52:19;;;;;;;;;;;20.10;99.90;;;;;;5034558;28;19932;-78
2022/06/14 08:55:06;;;;;;;;;;;19.70;99.90;;;;;;5034647;28;19944;-78
2022/06/14 08:57:31;;;;;;;;;;;19.40;99.90;;;;;;5014371;28;19940;-78
2022/06/14 08:59:57;;;;;;;;;;;19.20;99.90;;;;;;5004838;28;19933;-79
2022/06/14 09:02:37;;;;;;;;;;;19.10;99.90;;;;;;5033453;28;19929;-78
2022/06/14 09:05:05;;;;;;;;;;;19.00;99.90;;;;;;5016661;28;19929;-78
2022/06/14 09:07:35;;;;;;;;;;;18.70;99.90;;;;;;5032526;28;20024;-79
2022/06/14 09:10:11;;;;;;;;;;;18.60;99.90;;;;;;5033717;28;20099;-78
2022/06/14 09:12:37;;;;;;;;;;;18.50;99.90;;;;;;5033664;28;20461;-78
2022/06/14 09:15:21;;;;;;;;;;;18.50;99.90;;;;;;5017398;28;19987;-79
2022/06/14 09:17:50;;;;;;;;;;;18.40;99.90;;;;;;5031567;28;20438;-79
2022/06/14 09:20:28;;;;;;;;;;;18.70;99.90;;;;;;5017192;28;20420;-78
2022/06/14 09:23:09;;;;;;;;;;;18.60;99.90;;;;;;5014086;28;19936;-78
2022/06/14 09:25:38;;;;;;;;;;;19.50;99.90;;;;;;5017281;28;19983;-79
2022/06/14 09:28:27;;;;;;;;;;;20.40;99.90;;;;;;5032164;28;19929;-78
2022/06/14 09:31:06;;;;;;;;;;;19.50;99.90;;;;;;5021883;28;19991;-77
2022/06/14 09:33:50;;;;;;;;;;;20.00;99.90;;;;;;5033339;28;19986;-78
2022/06/14 09:36:18;;;;;;;;;;;19.40;99.90;;;;;;5033813;28;19925;-79
2022/06/14 09:38:53;;;;;;;;;;;19.60;99.90;;;;;;5013721;28;20006;-78
2022/06/14 09:41:22;;;;;;;;;;;19.70;99.90;;;;;;5031065;28;20051;-78
2022/06/14 09:44:03;;;;;;;;;;;19.30;99.90;;;;;;5013134;28;20041;-78
2022/06/14 09:46:36;;;;;;;;;;;19.90;99.90;;;;;;5013372;28;19925;-79
2022/06/14 09:49:21;;;;;;;;;;;20.40;99.90;;;;;;5012744;28;19992;-78
2022/06/14 09:51:49;;;;;;;;;;;20.50;99.90;;;;;;5030911;28;19936;-79
2022/06/14 09:54:27;;;;;;;;;;;20.50;99.90;;;;;;5015124;28;19964;-79
2022/06/14 09:57:04;;;;;;;;;;;20.20;99.90;;;;;;5029633;28;19975;-80
2022/06/14 09:59:48;;;;;;;;;;;20.20;99.90;;;;;;5030963;28;20641;-78
2022/06/14 10:02:20;;;;;;;;;;;19.90;99.90;;;;;;5033033;28;19968;-80
2022/06/14 10:04:54;;;;;;;;;;;19.70;99.90;;;;;;5032633;28;19951;-78
2022/06/14 10:07:29;;;;;;;;;;;19.40;99.90;;;;;;5030992;28;19928;-78
2022/06/14 10:09:58;;;;;;;;;;;20.10;99.90;;;;;;5031993;28;19925;-78
2022/06/14 10:12:45;;;;;;;;;;;20.80;99.90;;;;;;5031718;28;20294;-78
2022/06/14 10:15:29;;;;;;;;;;;21.30;99.90;;;;;;5032165;28;20398;-78
2022/06/14 10:18:12;;;;;;;;;;;21.40;99.90;;;;;;5031754;28;20011;-78
2022/06/14 10:20:53;;;;;;;;;;;21.70;99.90;;;;;;5032477;28;19971;-79
2022/06/14 10:23:37;;;;;;;;;;;21.90;99.90;;;;;;5032635;28;19928;-79
2022/06/14 10:29:06;;;;;;;;;;;21.80;99.90;;;;;;5029571;28;20313;-79
2022/06/14 10:31:50;;;;;;;;;;;20.40;99.90;;;;;;5012518;28;20546;-79
2022/06/14 10:34:19;;;;;;;;;;;21.80;99.90;;;;;;5013101;28;19933;-79
2022/06/14 10:36:55;;;;;;;;;;;22.80;99.90;;;;;;5031767;28;19959;-79
2022/06/14 10:39:39;;;;;;;;;;;22.80;99.90;;;;;;5029812;28;19956;-78
2022/06/14 10:42:26;;;;;;;;;;;20.20;99.90;;;;;;5028383;28;19976;-79
2022/06/14 10:45:07;;;;;;;;;;;20.50;99.90;;;;;;4999726;28;19986;-79
2022/06/14 10:47:51;;;;;;;;;;;20.70;99.90;;;;;;5031032;28;19933;-77
2022/06/14 10:50:20;;;;;;;;;;;20.80;99.90;;;;;;5030482;28;19932;-79
2022/06/14 10:52:45;;;;;;;;;;;20.10;99.90;;;;;;5031611;28;19960;-79
2022/06/14 10:55:28;;;;;;;;;;;20.30;99.90;;;;;;5031304;28;20007;-78
2022/06/14 10:58:03;;;;;;;;;;;20.50;99.90;;;;;;5010661;28;20302;-80
2022/06/14 11:00:28;;;;;;;;;;;20.90;99.90;;;;;;5030773;28;19932;-79
2022/06/14 11:03:00;;;;;;;;;;;20.90;99.90;;;;;;5011331;28;19929;-79
2022/06/14 11:05:55;;;;;;;;;;;20.90;99.90;;;;;;5030845;28;19933;-80
2022/06/14 11:08:26;;;;;;;;;;;20.70;99.90;;;;;;4998361;28;19933;-79
2022/06/14 11:10:55;;;;;;;;;;;21.30;99.90;;;;;;5011179;28;19990;-80
2022/06/14 11:13:47;;;;;;;;;;;21.10;99.90;;;;;;5018186;28;19990;-80
2022/06/14 11:16:42;;;;;;;;;;;21.20;99.90;;;;;;5006352;28;20389;-80
2022/06/14 11:19:29;;;;;;;;;;;21.10;99.90;;;;;;5030218;28;19928;-79
2022/06/14 11:22:14;;;;;;;;;;;20.10;99.90;;;;;;5029414;28;19944;-79
2022/06/14 11:24:40;;;;;;;;;;;20.70;99.90;;;;;;5011845;28;19933;-80
2022/06/14 11:27:15;;;;;;;;;;;21.70;99.90;;;;;;4995942;28;19936;-79
2022/06/14 11:29:55;;;;;;;;;;;22.20;99.90;;;;;;5028174;28;20184;-79
2022/06/14 11:32:39;;;;;;;;;;;22.40;99.90;;;;;;5025920;28;19967;-79
2022/06/14 11:35:17;;;;;;;;;;;22.10;99.90;;;;;;5024989;28;19929;-79
2022/06/14 11:37:56;;;;;;;;;;;21.70;99.90;;;;;;5028957;28;19939;-79
2022/06/14 11:40:26;;;;;;;;;;;21.10;99.90;;;;;;5028619;28;19979;-80
2022/06/14 11:43:07;;;;;;;;;;;21.20;99.90;;;;;;5012354;28;19939;-79
2022/06/14 11:45:41;;;;;;;;;;;21.40;99.90;;;;;;5029776;28;19928;-79
2022/06/14 11:48:16;;;;;;;;;;;21.40;99.90;;;;;;5029715;28;19929;-79
2022/06/14 11:50:50;;;;;;;;;;;21.30;99.90;;;;;;5018188;28;19933;-80
2022/06/14 11:53:35;;;;;;;;;;;21.20;99.90;;;;;;5012857;28;19929;-81
2022/06/14 11:56:07;;;;;;;;;;;21.00;99.90;;;;;;5028381;28;20386;-79
2022/06/14 11:58:53;;;;;;;;;;;21.20;99.90;;;;;;5028112;28;20465;-79
2022/06/14 12:01:37;;;;;;;;;;;21.40;99.90;;;;;;5013800;28;19929;-79
2022/06/14 12:04:09;;;;;;;;;;;21.10;99.90;;;;;;5028699;28;19928;-79
2022/06/14 12:06:36;;;;;;;;;;;21.40;99.90;;;;;;5030717;28;19935;-79
2022/06/14 12:09:11;;;;;;;;;;;21.20;99.90;;;;;;5012638;28;19933;-79
2022/06/14 12:11:44;;;;;;;;;;;20.80;99.90;;;;;;5033207;28;19977;-80
2022/06/14 12:14:13;;;;;;;;;;;21.00;99.90;;;;;;5031538;28;19929;-80
2022/06/14 12:16:40;;;;;;;;;;;21.00;99.90;;;;;;5016168;28;19939;-80
2022/06/14 12:19:06;;;;;;;;;;;21.30;99.90;;;;;;5032340;28;20011;-80
2022/06/14 12:21:43;;;;;;;;;;;21.50;99.90;;;;;;5034114;28;19939;-80
2022/06/14 12:24:13;;;;;;;;;;;22.30;99.90;;;;;;5013485;28;20132;-80
2022/06/14 12:26:47;;;;;;;;;;;23.10;99.90;;;;;;5015625;28;19925;-79
2022/06/14 12:29:26;;;;;;;;;;;23.70;99.90;;;;;;5029145;28;20023;-79
2022/06/14 12:31:54;;;;;;;;;;;23.40;99.90;;;;;;5020179;28;19975;-80
2022/06/14 12:34:28;;;;;;;;;;;22.90;99.90;;;;;;5016344;28;19939;-81
2022/06/14 12:37:05;;;;;;;;;;;22.90;99.90;;;;;;5032964;28;19929;-79
2022/06/14 12:39:36;;;;;;;;;;;22.20;99.90;;;;;;5016096;28;19971;-81
2022/06/14 12:42:31;;;;;;;;;;;22.20;99.90;;;;;;5016483;28;19933;-81
2022/06/14 12:44:59;;;;;;;;;;;22.60;99.90;;;;;;5014296;28;19964;-80
2022/06/14 12:47:34;;;;;;;;;;;21.80;99.10;;;;;;5012540;28;19928;-80
2022/06/14 12:50:20;;;;;;;;;;;21.30;99.80;;;;;;5030060;28;19929;-81
2022/06/14 12:52:50;;;;;;;;;;;21.90;99.90;;;;;;5029220;28;19929;-80
2022/06/14 12:55:19;;;;;;;;;;;21.70;99.90;;;;;;5012973;28;20728;-80
2022/06/14 12:58:04;;;;;;;;;;;21.80;99.90;;;;;;5027911;28;19925;-81
2022/06/14 13:00:29;;;;;;;;;;;21.50;99.90;;;;;;5013028;28;19972;-81
2022/06/14 13:02:55;;;;;;;;;;;21.60;99.90;;;;;;5031062;28;20027;-80
2022/06/14 13:05:23;;;;;;;;;;;21.10;99.90;;;;;;5032559;28;19967;-81
2022/06/14 13:07:51;;;;;;;;;;;20.10;99.90;;;;;;5033103;28;19933;-81
2022/06/14 13:10:28;;;;;;;;;;;20.20;99.90;;;;;;5035406;28;19935;-80
2022/06/14 13:12:54;;;;;;;;;;;19.60;99.90;;;;;;5032784;28;20382;-81
2022/06/14 13:15:35;;;;;;;;;;;20.40;99.90;;;;;;5015297;28;19928;-79
2022/06/14 13:18:06;;;;;;;;;;;20.50;99.90;;;;;;5029981;28;19958;-80
2022/06/14 13:20:47;;;;;;;;;;;21.40;99.90;;;;;;5013620;28;19928;-80
2022/06/14 13:23:18;;;;;;;;;;;22.20;99.90;;;;;;5029839;28;19929;-80
2022/06/14 13:26:05;;;;;;;;;;;22.80;99.90;;;;;;5021258;28;19978;-80
2022/06/14 13:28:36;;;;;;;;;;;21.80;99.10;;;;;;5029729;28;19924;-80
2022/06/14 13:31:02;;;;;;;;;;;22.10;99.90;;;;;;5030851;28;19929;-80
2022/06/14 13:33:37;;;;;;;;;;;22.40;99.90;;;;;;5031409;28;19931;-80
2022/06/14 13:36:15;;;;;;;;;;;23.30;99.90;;;;;;5013370;28;20352;-79
2022/06/14 13:38:55;;;;;;;;;;;23.30;99.90;;;;;;5031176;28;19933;-81
2022/06/14 13:41:36;;;;;;;;;;;23.00;95.60;;;;;;5030985;28;19929;-80
2022/06/14 13:44:19;;;;;;;;;;;22.60;98.10;;;;;;5011600;28;19939;-81
2022/06/14 13:46:49;;;;;;;;;;;23.60;99.90;;;;;;5030854;28;19932;-81
2022/06/14 13:49:34;;;;;;;;;;;23.60;96.10;;;;;;5014014;28;20011;-80
2022/06/14 13:52:18;;;;;;;;;;;23.50;94.70;;;;;;5030963;28;20685;-80
2022/06/14 13:54:46;;;;;;;;;;;23.60;99.10;;;;;;5028569;28;19933;-80
2022/06/14 13:57:32;;;;;;;;;;;23.30;94.20;;;;;;5030232;28;19983;-81
2022/06/14 14:00:05;;;;;;;;;;;23.50;99.10;;;;;;5012293;28;19944;-80
2022/06/14 14:02:49;;;;;;;;;;;24.20;97.60;;;;;;5012194;28;19975;-81
2022/06/14 14:05:15;;;;;;;;;;;24.50;99.30;;;;;;5029340;28;19940;-81
2022/06/14 14:07:46;;;;;;;;;;;24.70;99.90;;;;;;5030212;28;19933;-81
2022/06/14 14:10:31;;;;;;;;;;;23.50;98.50;;;;;;5026213;28;19968;-80
2022/06/14 14:13:11;;;;;;;;;;;21.80;92.20;;;;;;5028750;28;19935;-80
2022/06/14 14:15:36;;;;;;;;;;;22.10;95.00;;;;;;5029759;28;20075;-80
2022/06/14 14:18:08;;;;;;;;;;;20.80;94.60;;;;;;5029695;28;20031;-81
2022/06/14 14:20:34;;;;;;;;;;;21.70;99.90;;;;;;5028623;28;20351;-82
2022/06/14 14:23:15;;;;;;;;;;;21.50;99.90;;;;;;5012711;28;19964;-81
2022/06/14 14:25:59;;;;;;;;;;;21.70;98.70;;;;;;5027987;28;19928;-81
2022/06/14 14:28:33;;;;;;;;;;;21.10;97.80;;;;;;5013830;28;19932;-79
2022/06/14 14:31:04;;;;;;;;;;;20.70;98.20;;;;;;5027392;28;19944;-79
2022/06/14 14:33:44;;;;;;;;;;;20.70;98.70;;;;;;5011914;28;19929;-79
2022/06/14 14:36:25;;;;;;;;;;;20.50;99.90;;;;;;5011309;28;19935;-80
2022/06/14 14:39:00;;;;;;;;;;;20.10;96.10;;;;;;5027628;28;19933;-80
2022/06/14 14:41:33;;;;;;;;;;;20.20;99.90;;;;;;5027272;28;19946;-79
2022/06/14 14:44:02;;;;;;;;;;;20.30;99.90;;;;;;5028254;28;20782;-82
2022/06/14 14:46:32;;;;;;;;;;;20.30;99.90;;;;;;5012354;28;19929;-78
2022/06/14 14:49:14;;;;;;;;;;;20.60;99.90;;;;;;5028045;28;20021;-81
2022/06/14 14:51:49;;;;;;;;;;;20.20;99.90;;;;;;5028008;28;20362;-79
2022/06/14 14:54:25;;;;;;;;;;;20.20;99.90;;;;;;5027727;28;19999;-79
2022/06/14 14:57:00;;;;;;;;;;;20.60;99.90;;;;;;5012431;28;19928;-78
2022/06/14 14:59:36;;;;;;;;;;;20.50;99.90;;;;;;5027311;28;20011;-79
2022/06/14 15:05:28;;;;;;;;;;;20.50;99.90;;;;;;5021684;28;19940;-80
2022/06/14 15:08:06;;;;;;;;;;;20.60;99.90;;;;;;4979626;28;19929;-79
2022/06/14 15:10:50;;;;;;;;;;;20.90;99.90;;;;;;5020200;28;20467;-79